createdAt,value
2023-04-30T00:01:22.556Z,15.64
2023-04-30T00:03:49.332Z,15.66
2023-04-30T00:06:16.124Z,15.66
2023-04-30T00:08:42.760Z,15.67
2023-04-30T00:11:09.445Z,15.67
2023-04-30T00:13:36.301Z,15.67
2023-04-30T00:16:03.119Z,15.69
2023-04-30T00:18:29.798Z,15.69
2023-04-30T00:20:56.415Z,15.65
2023-04-30T00:23:23.115Z,15.64
2023-04-30T00:25:49.717Z,15.64
2023-04-30T00:28:16.394Z,15.62
2023-04-30T00:30:43.271Z,15.62
2023-04-30T00:33:10.000Z,15.62
2023-04-30T00:35:36.737Z,15.61
2023-04-30T00:38:03.381Z,15.62
2023-04-30T00:40:30.225Z,15.59
2023-04-30T00:42:56.942Z,15.55
2023-04-30T00:45:23.630Z,15.52
2023-04-30T00:47:50.482Z,15.48
2023-04-30T00:50:17.337Z,15.45
2023-04-30T00:52:44.848Z,15.43
2023-04-30T00:55:12.830Z,15.43
2023-04-30T00:57:41.125Z,15.48
2023-04-30T01:00:11.267Z,15.50
2023-04-30T01:02:38.561Z,15.49
2023-04-30T01:05:06.317Z,15.48
2023-04-30T01:07:39.104Z,15.47
2023-04-30T01:10:07.228Z,15.42
2023-04-30T01:12:39.841Z,15.40
2023-04-30T01:15:21.710Z,15.41
2023-04-30T01:17:56.007Z,15.39
2023-04-30T01:20:24.559Z,15.35
2023-04-30T01:23:09.690Z,15.32
2023-04-30T01:25:39.422Z,15.28
2023-04-30T01:28:09.624Z,15.26
2023-04-30T01:30:37.469Z,15.26
2023-04-30T01:33:04.531Z,15.28
2023-04-30T01:35:50.397Z,15.30
2023-04-30T01:38:42.039Z,15.33
2023-04-30T01:41:10.943Z,15.33
2023-04-30T01:44:26.198Z,15.35
2023-04-30T01:47:04.790Z,15.33
2023-04-30T01:50:16.506Z,15.33
2023-04-30T01:52:54.533Z,15.33
2023-04-30T01:55:30.377Z,15.35
2023-04-30T01:58:00.249Z,15.36
2023-04-30T02:00:28.891Z,15.36
2023-04-30T02:02:55.780Z,15.36
2023-04-30T02:05:22.997Z,15.32
2023-04-30T02:07:51.589Z,15.30
2023-04-30T02:10:24.503Z,15.29
2023-04-30T02:12:52.767Z,15.30
2023-04-30T02:15:19.808Z,15.31
2023-04-30T02:17:46.729Z,15.33
2023-04-30T02:20:13.837Z,15.38
2023-04-30T02:22:40.561Z,15.40
2023-04-30T02:25:07.625Z,15.41
2023-04-30T02:27:34.350Z,15.40
2023-04-30T02:30:01.384Z,15.39
2023-04-30T02:32:28.221Z,15.39
2023-04-30T02:34:55.072Z,15.38
2023-04-30T02:37:21.878Z,15.36
2023-04-30T02:39:49.050Z,15.36
2023-04-30T02:42:16.269Z,15.36
2023-04-30T02:44:43.719Z,15.36
2023-04-30T02:47:10.509Z,15.36
2023-04-30T02:49:37.276Z,15.34
2023-04-30T02:52:04.177Z,15.28
2023-04-30T02:54:30.860Z,15.23
2023-04-30T02:56:57.504Z,15.20
2023-04-30T02:59:24.213Z,15.21
2023-04-30T03:01:50.971Z,15.21
2023-04-30T03:04:17.693Z,15.20
2023-04-30T03:06:44.478Z,15.18
2023-04-30T03:09:11.240Z,15.14
2023-04-30T03:11:37.946Z,15.08
2023-04-30T03:14:07.513Z,15.01
2023-04-30T03:16:34.596Z,14.95
2023-04-30T03:19:01.347Z,14.91
2023-04-30T03:21:27.988Z,14.89
2023-04-30T03:23:54.607Z,14.89
2023-04-30T03:26:21.378Z,14.90
2023-04-30T03:28:47.983Z,14.89
2023-04-30T03:31:15.795Z,14.88
2023-04-30T03:33:42.533Z,14.89
2023-04-30T03:36:09.164Z,14.90
2023-04-30T03:38:35.790Z,14.92
2023-04-30T03:41:02.633Z,14.91
2023-04-30T03:43:29.411Z,14.90
2023-04-30T03:45:56.193Z,14.85
2023-04-30T03:48:22.881Z,14.81
2023-04-30T03:50:50.121Z,14.80
2023-04-30T03:53:16.795Z,14.79
2023-04-30T03:55:43.540Z,14.81
2023-04-30T03:58:10.241Z,14.81
2023-04-30T04:00:37.184Z,14.79
2023-04-30T04:03:04.621Z,14.76
2023-04-30T04:05:31.667Z,14.75
2023-04-30T04:07:58.756Z,14.75
2023-04-30T04:10:25.457Z,14.73
2023-04-30T04:12:52.213Z,14.67
2023-04-30T04:15:18.973Z,14.63
2023-04-30T04:17:45.892Z,14.58
2023-04-30T04:20:14.148Z,14.55
2023-04-30T04:22:41.188Z,14.55
2023-04-30T04:25:08.856Z,14.56
2023-04-30T04:27:36.208Z,14.56
2023-04-30T04:30:03.917Z,14.58
2023-04-30T04:32:32.743Z,14.58
2023-04-30T04:34:59.643Z,14.60
2023-04-30T04:37:26.464Z,14.61
2023-04-30T04:39:53.436Z,14.62
2023-04-30T04:42:20.524Z,14.61
2023-04-30T04:44:47.705Z,14.61
2023-04-30T04:47:16.827Z,14.64
2023-04-30T04:49:43.577Z,14.65
2023-04-30T04:52:10.402Z,14.70
2023-04-30T04:54:37.047Z,14.76
2023-04-30T04:57:03.799Z,14.84
2023-04-30T04:59:30.496Z,14.88
2023-04-30T05:01:57.650Z,14.94
2023-04-30T05:04:24.566Z,14.99
2023-04-30T05:06:51.384Z,15.04
2023-04-30T05:09:19.954Z,15.09
2023-04-30T05:11:49.039Z,15.14
2023-04-30T05:14:16.272Z,15.18
2023-04-30T05:16:43.424Z,15.22
2023-04-30T05:19:10.162Z,15.24
2023-04-30T05:21:36.853Z,15.28
2023-04-30T05:24:03.961Z,15.31
2023-04-30T05:26:30.930Z,15.36
2023-04-30T05:28:57.662Z,15.42
2023-04-30T05:31:24.458Z,15.48
2023-04-30T05:33:51.222Z,15.51
2023-04-30T05:36:17.976Z,15.53
2023-04-30T05:38:44.628Z,15.54
2023-04-30T05:41:12.775Z,15.55
2023-04-30T05:43:39.404Z,15.58
2023-04-30T05:46:06.652Z,15.60
2023-04-30T05:48:33.591Z,15.61
2023-04-30T05:51:00.411Z,15.62
2023-04-30T05:53:27.696Z,15.66
2023-04-30T05:55:54.330Z,15.69
2023-04-30T05:58:20.981Z,15.72
2023-04-30T06:00:51.007Z,15.77
2023-04-30T06:03:19.078Z,15.84
2023-04-30T06:05:47.593Z,15.90
2023-04-30T06:08:14.400Z,15.97
2023-04-30T06:10:41.146Z,16.04
2023-04-30T06:13:07.926Z,16.08
2023-04-30T06:15:34.669Z,16.12
2023-04-30T06:18:01.503Z,16.16
2023-04-30T06:20:28.257Z,16.19
2023-04-30T06:22:54.937Z,16.22
2023-04-30T06:25:21.665Z,16.28
2023-04-30T06:27:48.430Z,16.35
2023-04-30T06:30:15.328Z,16.42
2023-04-30T06:32:41.954Z,16.47
2023-04-30T06:35:09.384Z,16.52
2023-04-30T06:37:38.030Z,16.57
2023-04-30T06:40:06.385Z,16.61
2023-04-30T06:42:36.855Z,16.63
2023-04-30T06:45:04.116Z,16.66
2023-04-30T06:47:34.794Z,16.68
2023-04-30T06:50:02.646Z,16.70
2023-04-30T06:52:30.744Z,16.71
2023-04-30T06:54:57.555Z,16.76
2023-04-30T06:57:24.901Z,16.81
2023-04-30T06:59:51.810Z,16.87
2023-04-30T07:02:21.204Z,16.92
2023-04-30T07:04:49.482Z,16.97
2023-04-30T07:07:16.588Z,17.01
2023-04-30T07:09:43.300Z,17.04
2023-04-30T07:12:12.193Z,17.06
2023-04-30T07:14:39.466Z,17.08
2023-04-30T07:17:06.092Z,17.11
2023-04-30T07:19:32.771Z,17.13
2023-04-30T07:21:59.520Z,17.16
2023-04-30T07:24:26.327Z,17.21
2023-04-30T07:26:53.150Z,17.27
2023-04-30T07:29:19.992Z,17.35
2023-04-30T07:31:46.703Z,17.45
2023-04-30T07:34:13.537Z,17.55
2023-04-30T07:36:40.558Z,17.68
2023-04-30T07:39:08.088Z,17.84
2023-04-30T07:41:36.205Z,17.99
2023-04-30T07:44:03.206Z,18.11
2023-04-30T07:46:29.880Z,18.25
2023-04-30T07:48:56.639Z,18.37
2023-04-30T07:51:23.361Z,18.47
2023-04-30T07:53:50.106Z,18.55
2023-04-30T07:56:16.758Z,18.66
2023-04-30T07:58:43.819Z,18.75
2023-04-30T08:01:10.640Z,18.80
2023-04-30T08:03:37.434Z,18.84
2023-04-30T08:06:06.154Z,18.87
2023-04-30T08:08:32.871Z,18.89
2023-04-30T08:10:59.741Z,18.89
2023-04-30T08:13:26.451Z,18.93
2023-04-30T08:15:53.112Z,18.97
2023-04-30T08:18:19.712Z,19.03
2023-04-30T08:20:46.371Z,19.07
2023-04-30T08:23:13.001Z,19.11
2023-04-30T08:25:39.822Z,19.17
2023-04-30T08:28:06.851Z,19.23
2023-04-30T08:30:33.574Z,19.29
2023-04-30T08:33:00.372Z,19.36
2023-04-30T08:35:27.116Z,19.45
2023-04-30T08:37:54.152Z,19.52
2023-04-30T08:40:22.113Z,19.59
2023-04-30T08:43:23.672Z,19.66
2023-04-30T08:45:52.128Z,19.76
2023-04-30T08:48:21.079Z,19.80
2023-04-30T08:50:47.785Z,19.81
2023-04-30T08:53:17.583Z,19.82
2023-04-30T08:55:44.792Z,19.82
2023-04-30T08:58:11.494Z,19.78
2023-04-30T09:00:39.545Z,19.79
2023-04-30T09:03:08.295Z,19.77
2023-04-30T09:05:36.506Z,19.79
2023-04-30T09:08:04.425Z,19.86
2023-04-30T09:10:34.901Z,19.93
2023-04-30T09:13:09.434Z,20.02
2023-04-30T09:15:39.345Z,20.12
2023-04-30T09:18:18.807Z,20.25
2023-04-30T09:20:56.105Z,20.46
2023-04-30T09:23:23.190Z,20.49
2023-04-30T09:25:49.874Z,20.49
2023-04-30T09:28:16.706Z,20.45
2023-04-30T09:30:43.546Z,20.42
2023-04-30T09:33:11.880Z,20.43
2023-04-30T09:35:41.852Z,20.45
2023-04-30T09:38:26.410Z,20.50
2023-04-30T09:40:53.125Z,20.56
2023-04-30T09:43:19.848Z,20.56
2023-04-30T09:45:49.182Z,20.63
2023-04-30T09:48:17.831Z,20.71
2023-04-30T09:50:46.316Z,20.73
2023-04-30T09:53:18.065Z,20.81
2023-04-30T09:55:47.026Z,20.90
2023-04-30T09:58:14.896Z,21.02
2023-04-30T10:00:43.104Z,21.33
2023-04-30T10:03:11.935Z,21.62
2023-04-30T10:05:49.155Z,21.86
2023-04-30T10:08:33.696Z,22.15
2023-04-30T10:11:05.825Z,22.33
2023-04-30T10:13:35.994Z,22.54
2023-04-30T10:16:09.900Z,22.86
2023-04-30T10:18:39.984Z,23.05
2023-04-30T10:21:12.143Z,23.18
2023-04-30T10:23:39.998Z,23.40
2023-04-30T10:26:07.057Z,23.71
2023-04-30T10:28:34.034Z,24.04
2023-04-30T10:31:01.500Z,24.39
2023-04-30T10:34:11.149Z,24.64
2023-04-30T10:36:44.879Z,24.57
2023-04-30T10:39:13.283Z,24.44
2023-04-30T10:41:40.533Z,24.28
2023-04-30T10:44:08.038Z,24.00
2023-04-30T10:46:36.333Z,23.89
2023-04-30T10:49:03.274Z,23.95
2023-04-30T10:51:52.068Z,23.93
2023-04-30T10:54:34.620Z,23.86
2023-04-30T10:57:17.827Z,23.61
2023-04-30T10:59:51.398Z,23.43
2023-04-30T11:02:18.313Z,23.48
2023-04-30T11:05:20.693Z,23.61
2023-04-30T11:07:56.653Z,23.90
2023-04-30T11:10:28.572Z,24.19
2023-04-30T11:12:56.050Z,24.39
2023-04-30T11:15:27.438Z,24.56
2023-04-30T11:17:59.343Z,24.86
2023-04-30T11:20:26.791Z,25.10
2023-04-30T11:23:22.094Z,25.31
2023-04-30T11:25:57.998Z,25.56
2023-04-30T11:28:26.835Z,25.72
2023-04-30T11:31:00.748Z,25.73
2023-04-30T11:33:29.870Z,25.70
2023-04-30T11:35:59.306Z,25.67
2023-04-30T11:38:29.186Z,25.70
2023-04-30T11:40:57.827Z,25.78
2023-04-30T11:43:27.148Z,25.92
2023-04-30T11:46:13.461Z,25.96
2023-04-30T11:48:42.448Z,25.84
2023-04-30T11:51:19.363Z,25.69
2023-04-30T11:53:50.878Z,25.62
2023-04-30T11:56:22.249Z,25.60
2023-04-30T11:58:50.599Z,25.64
2023-04-30T12:01:18.559Z,25.69
2023-04-30T12:03:47.571Z,25.59
2023-04-30T12:06:27.958Z,25.30
2023-04-30T12:08:56.527Z,24.94
2023-04-30T12:11:28.038Z,24.53
2023-04-30T12:13:56.605Z,24.36
2023-04-30T12:16:38.927Z,24.42
2023-04-30T12:19:05.742Z,24.32
2023-04-30T12:21:33.567Z,24.41
2023-04-30T12:24:02.813Z,24.58
2023-04-30T12:26:40.877Z,24.79
2023-04-30T12:29:18.545Z,25.11
2023-04-30T12:31:49.226Z,25.24
2023-04-30T12:34:16.244Z,25.07
2023-04-30T12:36:43.407Z,25.01
2023-04-30T12:39:13.218Z,25.02
2023-04-30T12:41:42.416Z,25.01
2023-04-30T12:44:17.150Z,24.93
2023-04-30T12:46:45.525Z,24.86
2023-04-30T12:49:12.770Z,24.80
2023-04-30T12:51:42.582Z,24.71
2023-04-30T12:54:09.510Z,24.66
2023-04-30T12:56:36.409Z,24.49
2023-04-30T12:59:03.214Z,24.24
2023-04-30T13:01:30.050Z,24.09
2023-04-30T13:03:57.060Z,24.16
2023-04-30T13:06:24.151Z,24.35
2023-04-30T13:11:24.387Z,24.16
2023-04-30T13:13:51.208Z,23.98
2023-04-30T13:16:18.139Z,23.97
2023-04-30T13:18:44.929Z,23.82
2023-04-30T13:21:11.649Z,23.67
2023-04-30T13:23:44.956Z,23.56
2023-04-30T13:26:19.381Z,23.46
2023-04-30T13:28:46.215Z,23.32
2023-04-30T13:31:12.992Z,23.20
2023-04-30T13:36:21.255Z,22.83
2023-04-30T13:38:48.122Z,22.80
2023-04-30T13:41:15.008Z,22.74
2023-04-30T13:43:42.702Z,22.70
2023-04-30T13:46:10.002Z,22.54
2023-04-30T13:48:36.872Z,22.47
2023-04-30T13:51:03.657Z,22.46
2023-04-30T13:53:30.447Z,22.42
2023-04-30T13:55:59.455Z,22.44
2023-04-30T13:58:26.685Z,22.49
2023-04-30T14:00:53.504Z,22.60
2023-04-30T14:03:20.402Z,22.71
2023-04-30T14:05:48.189Z,22.82
2023-04-30T14:08:14.995Z,22.91
2023-04-30T14:10:41.700Z,22.95
2023-04-30T14:13:08.783Z,23.00
2023-04-30T14:15:35.961Z,22.95
2023-04-30T14:18:02.686Z,22.81
2023-04-30T14:20:29.569Z,22.79
2023-04-30T14:22:56.454Z,22.84
2023-04-30T14:25:24.128Z,22.86
2023-04-30T14:27:50.890Z,22.86
2023-04-30T14:30:17.744Z,22.84
2023-04-30T14:32:44.512Z,22.84
2023-04-30T14:35:11.380Z,22.73
2023-04-30T14:37:38.261Z,22.62
2023-04-30T14:40:08.347Z,22.61
2023-04-30T14:42:35.173Z,22.61
2023-04-30T14:45:02.023Z,22.63
2023-04-30T14:47:29.051Z,22.63
2023-04-30T14:49:57.240Z,22.64
2023-04-30T14:52:24.588Z,22.72
2023-04-30T14:54:51.324Z,22.80
2023-04-30T14:57:18.869Z,22.78
2023-04-30T14:59:45.681Z,22.78
2023-04-30T15:02:12.435Z,22.76
2023-04-30T15:04:39.310Z,22.84
2023-04-30T15:07:06.126Z,22.93
2023-04-30T15:09:33.082Z,22.94
2023-04-30T15:11:59.731Z,22.89
2023-04-30T15:14:26.451Z,22.83
2023-04-30T15:16:53.297Z,22.80
2023-04-30T15:19:19.976Z,22.76
2023-04-30T15:21:48.952Z,22.69
2023-04-30T15:24:16.195Z,22.64
2023-04-30T15:26:42.918Z,22.62
2023-04-30T15:29:10.688Z,22.62
2023-04-30T15:31:37.593Z,22.60
2023-04-30T15:34:04.436Z,22.50
2023-04-30T15:36:32.068Z,22.40
2023-04-30T15:38:58.910Z,22.29
2023-04-30T15:41:25.514Z,22.24
2023-04-30T15:43:52.165Z,22.19
2023-04-30T15:46:19.221Z,22.15
2023-04-30T15:48:45.986Z,22.13
2023-04-30T15:51:12.582Z,22.11
2023-04-30T15:53:39.160Z,22.09
2023-04-30T15:56:06.263Z,22.07
2023-04-30T15:58:32.913Z,21.98
2023-04-30T16:00:59.646Z,21.92
2023-04-30T16:03:26.356Z,21.90
2023-04-30T16:05:54.570Z,21.89
2023-04-30T16:08:21.535Z,21.88
2023-04-30T16:10:48.731Z,21.87
2023-04-30T16:13:15.332Z,21.86
2023-04-30T16:15:42.106Z,21.86
2023-04-30T16:18:10.000Z,21.88
2023-04-30T16:20:37.938Z,21.89
2023-04-30T16:23:05.187Z,21.89
2023-04-30T16:25:32.021Z,21.87
2023-04-30T16:27:58.685Z,21.84
2023-04-30T16:30:25.797Z,21.82
2023-04-30T16:32:52.523Z,21.80
2023-04-30T16:35:19.460Z,21.77
2023-04-30T16:37:46.227Z,21.73
2023-04-30T16:40:13.031Z,21.68
2023-04-30T16:42:39.763Z,21.65
2023-04-30T16:45:07.386Z,21.59
2023-04-30T16:47:34.057Z,21.55
2023-04-30T16:50:00.849Z,21.49
2023-04-30T16:52:28.436Z,21.40
2023-04-30T16:54:55.619Z,21.33
2023-04-30T16:57:23.626Z,21.27
2023-04-30T16:59:50.646Z,21.18
2023-04-30T17:02:17.913Z,21.11
2023-04-30T17:05:28.462Z,21.07
2023-04-30T17:07:55.187Z,21.05
2023-04-30T17:10:21.860Z,21.01
2023-04-30T17:12:48.463Z,21.00
2023-04-30T17:15:15.381Z,21.01
2023-04-30T17:17:42.360Z,21.03
2023-04-30T17:20:09.414Z,21.08
2023-04-30T17:22:36.605Z,21.09
2023-04-30T17:25:04.338Z,21.04
2023-04-30T17:27:31.130Z,21.03
2023-04-30T17:29:57.991Z,21.04
2023-04-30T17:32:25.796Z,21.04
2023-04-30T17:34:52.484Z,21.03
2023-04-30T17:37:19.266Z,21.01
2023-04-30T17:39:46.565Z,20.97
2023-04-30T17:42:13.350Z,20.92
2023-04-30T17:44:40.107Z,20.89
2023-04-30T17:47:07.454Z,20.86
2023-04-30T17:49:34.062Z,20.84
2023-04-30T17:52:01.397Z,20.83
2023-04-30T17:54:31.497Z,20.80
2023-04-30T17:56:59.285Z,20.73
2023-04-30T17:59:28.886Z,20.66
2023-04-30T18:01:56.097Z,20.61
2023-04-30T18:04:22.871Z,20.57
2023-04-30T18:06:49.562Z,20.52
2023-04-30T18:09:16.531Z,20.47
2023-04-30T18:11:43.311Z,20.42
2023-04-30T18:14:10.413Z,20.40
2023-04-30T18:16:37.169Z,20.37
2023-04-30T18:19:04.144Z,20.33
2023-04-30T18:21:30.842Z,20.30
2023-04-30T18:23:57.548Z,20.27
2023-04-30T18:26:24.846Z,20.23
2023-04-30T18:28:52.401Z,20.20
2023-04-30T18:31:19.234Z,20.18
2023-04-30T18:33:46.066Z,20.16
2023-04-30T18:36:13.325Z,20.13
2023-04-30T18:38:40.109Z,20.11
2023-04-30T18:41:07.494Z,20.09
2023-04-30T18:43:34.282Z,20.06
2023-04-30T18:46:00.903Z,20.04
2023-04-30T18:48:27.598Z,20.03
2023-04-30T18:50:54.196Z,20.01
2023-04-30T18:53:20.967Z,19.96
2023-04-30T18:55:47.827Z,19.94
2023-04-30T18:58:15.128Z,19.94
2023-04-30T19:00:44.962Z,19.92
2023-04-30T19:03:11.879Z,19.91
2023-04-30T19:05:38.827Z,19.90
2023-04-30T19:08:05.568Z,19.89
2023-04-30T19:10:33.833Z,19.88
2023-04-30T19:13:00.606Z,19.86
2023-04-30T19:15:29.865Z,19.85
2023-04-30T19:17:57.788Z,19.84
2023-04-30T19:20:24.710Z,19.85
2023-04-30T19:22:51.402Z,19.85
2023-04-30T19:25:18.385Z,19.85
2023-04-30T19:27:45.112Z,19.83
2023-04-30T19:30:12.706Z,19.80
2023-04-30T19:32:39.576Z,19.76
2023-04-30T19:35:07.318Z,19.73
2023-04-30T19:37:34.011Z,19.70
2023-04-30T19:40:00.727Z,19.67
2023-04-30T19:42:27.461Z,19.63
2023-04-30T19:44:54.440Z,19.61
2023-04-30T19:47:24.133Z,19.58
2023-04-30T19:49:52.173Z,19.53
2023-04-30T19:52:18.928Z,19.47
2023-04-30T19:54:48.849Z,19.43
2023-04-30T19:57:18.002Z,19.39
2023-04-30T19:59:47.552Z,19.35
2023-04-30T20:02:15.786Z,19.33
2023-04-30T20:04:43.975Z,19.31
2023-04-30T20:07:10.867Z,19.29
2023-04-30T20:09:38.162Z,19.27
2023-04-30T20:12:05.368Z,19.25
2023-04-30T20:14:32.152Z,19.22
2023-04-30T20:17:00.034Z,19.20
2023-04-30T20:19:27.008Z,19.16
2023-04-30T20:21:54.220Z,19.15
2023-04-30T20:24:22.394Z,19.12
2023-04-30T20:26:49.175Z,19.08
2023-04-30T20:29:19.455Z,19.06
2023-04-30T20:31:46.688Z,19.04
2023-04-30T20:34:13.903Z,19.02
2023-04-30T20:36:40.692Z,19.00
2023-04-30T20:39:08.777Z,18.98
2023-04-30T20:41:36.293Z,18.95
2023-04-30T20:44:03.099Z,18.93
2023-04-30T20:46:31.211Z,18.91
2023-04-30T20:49:03.960Z,18.88
2023-04-30T20:51:30.968Z,18.85
2023-04-30T20:53:57.638Z,18.81
2023-04-30T20:56:24.421Z,18.77
2023-04-30T20:58:51.117Z,18.73
2023-04-30T21:01:17.833Z,18.70
2023-04-30T21:03:44.666Z,18.69
2023-04-30T21:06:11.427Z,18.68
2023-04-30T21:08:38.177Z,18.66
2023-04-30T21:11:04.897Z,18.67
2023-04-30T21:13:31.577Z,18.68
2023-04-30T21:15:58.235Z,18.69
2023-04-30T21:18:27.321Z,18.69
2023-04-30T21:20:54.116Z,18.69
2023-04-30T21:23:20.784Z,18.67
2023-04-30T21:25:47.780Z,18.66
2023-04-30T21:28:14.718Z,18.65
2023-04-30T21:30:41.557Z,18.62
2023-04-30T21:33:08.549Z,18.59
2023-04-30T21:35:35.369Z,18.56
2023-04-30T21:38:02.115Z,18.53
2023-04-30T21:40:32.402Z,18.52
2023-04-30T21:43:00.186Z,18.50
2023-04-30T21:45:26.932Z,18.48
2023-04-30T21:47:53.759Z,18.46
2023-04-30T21:50:20.534Z,18.44
2023-04-30T21:52:47.269Z,18.45
2023-04-30T21:55:13.924Z,18.43
2023-04-30T21:57:40.924Z,18.41
2023-04-30T22:00:14.679Z,18.40
2023-04-30T22:02:48.657Z,18.39
2023-04-30T22:05:15.686Z,18.39
2023-04-30T22:07:42.380Z,18.37
2023-04-30T22:10:10.574Z,18.34
2023-04-30T22:12:37.799Z,18.29
2023-04-30T22:15:05.894Z,18.25
2023-04-30T22:17:32.753Z,18.22
2023-04-30T22:19:59.504Z,18.20
2023-04-30T22:22:26.182Z,18.20
2023-04-30T22:24:53.336Z,18.18
2023-04-30T22:27:19.992Z,18.17
2023-04-30T22:29:49.490Z,18.17
2023-04-30T22:32:16.851Z,18.17
2023-04-30T22:34:43.581Z,18.15
2023-04-30T22:37:12.989Z,18.13
2023-04-30T22:39:39.641Z,18.11
2023-04-30T22:42:07.070Z,18.08
2023-04-30T22:44:33.825Z,18.06
2023-04-30T22:47:01.361Z,18.06
2023-04-30T22:49:31.512Z,18.06
2023-04-30T22:52:00.013Z,18.03
2023-04-30T22:54:26.855Z,18.03
2023-04-30T22:56:53.668Z,18.03
2023-04-30T22:59:20.458Z,18.03
2023-04-30T23:01:47.159Z,18.03
2023-04-30T23:04:13.864Z,18.03
2023-04-30T23:06:41.847Z,18.02
2023-04-30T23:09:08.987Z,18.02
2023-04-30T23:11:35.762Z,18.01
2023-04-30T23:14:02.630Z,18.01
2023-04-30T23:16:29.333Z,18.01
2023-04-30T23:18:56.750Z,18.01
2023-04-30T23:21:23.380Z,18.01
2023-04-30T23:23:50.060Z,18.02
2023-04-30T23:26:16.713Z,18.03
2023-04-30T23:28:43.384Z,18.04
2023-04-30T23:31:10.072Z,18.05
2023-04-30T23:33:36.749Z,18.15
2023-04-30T23:36:03.601Z,18.29
2023-04-30T23:38:30.350Z,18.43
2023-04-30T23:40:57.522Z,18.51
2023-04-30T23:43:25.391Z,18.57
2023-04-30T23:45:52.570Z,18.62
2023-04-30T23:48:19.340Z,18.66
2023-04-30T23:50:47.384Z,18.73
2023-04-30T23:53:17.213Z,18.76
2023-04-30T23:55:44.254Z,18.78
2023-04-30T23:58:10.931Z,18.78
